createdAt,value
2017-07-05T00:01:50.463Z,59.58
2017-07-05T00:04:17.857Z,59.15
2017-07-05T00:06:45.259Z,59.44
2017-07-05T00:09:12.639Z,58.46
2017-07-05T00:11:40.347Z,57.40
2017-07-05T00:14:07.737Z,56.57
2017-07-05T00:16:35.135Z,56.06
2017-07-05T00:19:02.518Z,55.85
2017-07-05T00:21:29.938Z,57.19
2017-07-05T00:23:57.328Z,58.11
2017-07-05T00:26:24.720Z,58.37
2017-07-05T00:28:52.115Z,58.92
2017-07-05T00:31:19.511Z,59.23
2017-07-05T00:33:46.910Z,61.92
2017-07-05T00:36:14.304Z,61.80
2017-07-05T00:38:41.960Z,61.57
2017-07-05T00:41:09.352Z,61.06
2017-07-05T00:43:36.976Z,58.51
2017-07-05T00:46:04.367Z,58.19
2017-07-05T00:48:31.771Z,58.38
2017-07-05T00:50:59.165Z,58.55
2017-07-05T00:53:26.563Z,58.95
2017-07-05T00:55:53.953Z,59.42
2017-07-05T00:58:21.355Z,59.09
2017-07-05T01:00:48.751Z,58.79
2017-07-05T01:03:16.146Z,59.30
2017-07-05T01:05:43.544Z,59.93
2017-07-05T01:08:10.935Z,59.74
2017-07-05T01:10:38.323Z,59.60
2017-07-05T01:13:05.724Z,59.55
2017-07-05T01:15:33.113Z,59.73
2017-07-05T01:18:00.512Z,59.97
2017-07-05T01:20:27.909Z,60.02
2017-07-05T01:22:55.302Z,60.03
2017-07-05T01:25:22.695Z,59.72
2017-07-05T01:27:50.104Z,59.60
2017-07-05T01:30:17.483Z,62.74
2017-07-05T01:32:44.883Z,64.01
2017-07-05T01:35:12.283Z,63.04
2017-07-05T01:37:39.672Z,62.64
2017-07-05T01:40:07.067Z,61.98
2017-07-05T01:42:34.451Z,62.19
2017-07-05T01:45:01.896Z,62.78
2017-07-05T01:47:29.245Z,62.58
2017-07-05T01:49:56.650Z,63.04
2017-07-05T01:52:24.043Z,63.31
2017-07-05T01:54:51.444Z,63.89
2017-07-05T01:57:18.832Z,63.56
2017-07-05T01:59:46.232Z,64.04
2017-07-05T02:02:13.622Z,63.66
2017-07-05T02:04:41.020Z,63.28
2017-07-05T02:07:08.413Z,63.37
2017-07-05T02:09:35.803Z,62.85
2017-07-05T02:12:03.198Z,62.80
2017-07-05T02:14:30.595Z,63.31
2017-07-05T02:16:57.984Z,62.86
2017-07-05T02:19:25.381Z,64.45
2017-07-05T02:21:52.768Z,65.30
2017-07-05T02:24:20.162Z,65.76
2017-07-05T02:26:47.556Z,64.00
2017-07-05T02:29:14.955Z,64.55
2017-07-05T02:31:42.350Z,63.57
2017-07-05T02:34:09.748Z,63.60
2017-07-05T02:36:37.143Z,63.55
2017-07-05T02:39:04.543Z,63.53
2017-07-05T02:41:31.940Z,63.23
2017-07-05T02:43:59.593Z,63.18
2017-07-05T02:46:27.084Z,63.44
2017-07-05T02:48:54.479Z,63.75
2017-07-05T02:51:21.869Z,64.05
2017-07-05T02:53:49.263Z,63.79
2017-07-05T02:56:16.668Z,63.88
2017-07-05T02:58:44.069Z,63.54
2017-07-05T03:01:11.463Z,63.42
2017-07-05T03:03:38.860Z,63.86
2017-07-05T03:06:06.499Z,63.45
2017-07-05T03:08:33.893Z,63.39
2017-07-05T03:11:01.287Z,64.32
2017-07-05T03:13:28.675Z,64.81
2017-07-05T03:15:56.086Z,64.46
2017-07-05T03:18:23.779Z,65.03
2017-07-05T03:20:51.188Z,65.69
2017-07-05T03:23:18.574Z,65.34
2017-07-05T03:25:45.972Z,66.11
2017-07-05T03:28:13.369Z,65.59
2017-07-05T03:30:40.763Z,66.13
2017-07-05T03:33:08.156Z,65.73
2017-07-05T03:35:35.563Z,65.60
2017-07-05T03:38:02.953Z,65.80
2017-07-05T03:40:30.352Z,65.90
2017-07-05T03:42:57.752Z,66.42
2017-07-05T03:45:25.151Z,67.08
2017-07-05T03:47:52.544Z,67.16
2017-07-05T03:50:19.940Z,66.72
2017-07-05T03:52:47.335Z,67.28
2017-07-05T03:55:14.731Z,67.46
2017-07-05T03:57:42.121Z,66.57
2017-07-05T04:00:09.564Z,66.74
2017-07-05T04:02:36.919Z,66.60
2017-07-05T04:05:04.307Z,66.82
2017-07-05T04:07:31.707Z,67.17
2017-07-05T04:09:59.100Z,67.47
2017-07-05T04:12:26.491Z,67.73
2017-07-05T04:14:53.888Z,67.84
2017-07-05T04:17:21.293Z,68.76
2017-07-05T04:19:48.707Z,69.71
2017-07-05T04:22:16.102Z,69.90
2017-07-05T04:24:43.499Z,70.58
2017-07-05T04:27:10.892Z,70.63
2017-07-05T04:29:38.283Z,70.58
2017-07-05T04:32:05.687Z,69.89
2017-07-05T04:34:33.075Z,69.68
2017-07-05T04:37:00.472Z,69.50
2017-07-05T04:39:27.855Z,68.22
2017-07-05T04:41:55.258Z,67.80
2017-07-05T04:44:22.926Z,67.38
2017-07-05T04:46:50.325Z,67.03
2017-07-05T04:49:17.715Z,66.95
2017-07-05T04:51:45.115Z,67.08
2017-07-05T04:54:12.499Z,68.84
2017-07-05T04:56:39.899Z,70.43
2017-07-05T04:59:07.300Z,72.37
2017-07-05T05:01:34.695Z,72.14
2017-07-05T05:04:02.086Z,72.69
2017-07-05T05:06:29.495Z,73.01
2017-07-05T05:08:56.873Z,73.35
2017-07-05T05:11:24.277Z,74.31
2017-07-05T05:13:51.663Z,73.93
2017-07-05T05:16:19.067Z,73.43
2017-07-05T05:18:46.454Z,72.70
2017-07-05T05:21:13.844Z,72.51
2017-07-05T05:23:41.245Z,73.21
2017-07-05T05:26:08.640Z,73.17
2017-07-05T05:28:36.048Z,73.34
2017-07-05T05:31:03.426Z,72.83
2017-07-05T05:33:30.827Z,72.93
2017-07-05T05:35:58.216Z,73.08
2017-07-05T05:38:25.612Z,72.59
2017-07-05T05:40:53.005Z,72.20
2017-07-05T05:43:20.391Z,72.03
2017-07-05T05:45:47.791Z,71.90
2017-07-05T05:48:15.193Z,72.89
2017-07-05T05:50:42.583Z,71.85
2017-07-05T05:53:09.979Z,73.23
2017-07-05T05:55:37.375Z,72.65
2017-07-05T05:58:04.789Z,72.74
2017-07-05T06:00:32.180Z,71.48
2017-07-05T06:02:59.799Z,71.22
2017-07-05T06:05:27.179Z,71.54
2017-07-05T06:07:54.579Z,71.43
2017-07-05T06:10:21.985Z,70.92
2017-07-05T06:12:49.395Z,71.09
2017-07-05T06:15:16.782Z,69.99
2017-07-05T06:17:44.179Z,71.00
2017-07-05T06:20:11.579Z,69.88
2017-07-05T06:22:38.982Z,70.17
2017-07-05T06:25:06.371Z,68.09
2017-07-05T06:27:34.208Z,69.04
2017-07-05T06:30:01.926Z,68.70
2017-07-05T06:32:29.762Z,68.57
2017-07-05T06:34:57.611Z,68.52
2017-07-05T06:37:25.316Z,68.87
2017-07-05T06:39:54.107Z,68.92
2017-07-05T06:42:22.000Z,68.22
2017-07-05T06:44:49.793Z,68.78
2017-07-05T06:47:17.560Z,68.74
2017-07-05T06:49:45.486Z,69.21
2017-07-05T06:52:13.075Z,67.89
2017-07-05T06:54:40.490Z,67.75
2017-07-05T06:57:07.914Z,68.12
2017-07-05T06:59:35.288Z,68.34
2017-07-05T07:02:02.676Z,68.00
2017-07-05T07:04:30.075Z,69.29
2017-07-05T07:06:57.480Z,68.59
2017-07-05T07:09:24.881Z,68.38
2017-07-05T07:11:52.266Z,68.46
2017-07-05T07:14:19.679Z,68.29
2017-07-05T07:16:47.086Z,68.23
2017-07-05T07:19:14.476Z,67.63
2017-07-05T07:21:41.877Z,67.41
2017-07-05T07:24:09.271Z,67.28
2017-07-05T07:26:36.676Z,66.64
2017-07-05T07:29:04.067Z,66.80
2017-07-05T07:31:31.456Z,67.65
2017-07-05T07:33:58.855Z,66.76
2017-07-05T07:36:26.248Z,66.65
2017-07-05T07:38:53.651Z,66.61
2017-07-05T07:41:21.051Z,66.13
2017-07-05T07:43:48.445Z,66.40
2017-07-05T07:46:15.839Z,65.28
2017-07-05T07:48:43.231Z,64.92
2017-07-05T07:51:10.623Z,65.33
2017-07-05T07:53:38.011Z,65.68
2017-07-05T07:56:05.411Z,64.43
2017-07-05T07:58:33.031Z,64.95
2017-07-05T08:01:00.426Z,64.56
2017-07-05T08:03:27.826Z,63.79
2017-07-05T08:05:55.220Z,64.25
2017-07-05T08:08:22.611Z,64.16
2017-07-05T08:10:50.011Z,64.95
2017-07-05T08:13:17.417Z,64.76
2017-07-05T08:15:44.819Z,65.04
2017-07-05T08:18:12.215Z,65.57
2017-07-05T08:20:39.612Z,65.26
2017-07-05T08:23:07.007Z,65.50
2017-07-05T08:25:34.408Z,65.42
2017-07-05T08:28:01.799Z,65.72
2017-07-05T08:30:29.201Z,65.85
2017-07-05T08:32:56.596Z,65.15
2017-07-05T08:35:23.999Z,64.31
2017-07-05T08:37:53.111Z,64.91
2017-07-05T08:40:20.490Z,64.87
2017-07-05T08:42:47.888Z,63.96
2017-07-05T08:45:15.294Z,63.65
2017-07-05T08:47:42.672Z,63.54
2017-07-05T08:50:10.070Z,63.42
2017-07-05T08:52:37.472Z,62.82
2017-07-05T08:55:04.876Z,62.82
2017-07-05T08:57:32.268Z,62.40
2017-07-05T08:59:59.657Z,62.33
2017-07-05T09:02:27.061Z,61.84
2017-07-05T09:04:54.452Z,61.20
2017-07-05T09:07:21.859Z,60.35
2017-07-05T09:09:49.255Z,60.79
2017-07-05T09:12:16.654Z,60.87
2017-07-05T09:14:44.050Z,61.47
2017-07-05T09:17:11.444Z,60.70
2017-07-05T09:19:38.850Z,60.61
2017-07-05T09:22:06.235Z,60.50
2017-07-05T09:24:33.630Z,60.85
2017-07-05T09:27:01.027Z,61.13
2017-07-05T11:28:46.668Z,63.75
2017-07-05T11:31:14.060Z,63.11
2017-07-05T11:33:41.456Z,62.60
2017-07-05T11:36:08.842Z,61.27
2017-07-05T11:38:36.235Z,61.76
2017-07-05T11:41:03.623Z,60.87
2017-07-05T11:43:31.011Z,58.67
2017-07-05T11:45:58.403Z,56.26
2017-07-05T11:48:25.805Z,56.32
2017-07-05T11:50:53.195Z,56.21
2017-07-05T11:53:20.595Z,55.84
2017-07-05T11:55:47.984Z,55.68
2017-07-05T11:58:15.381Z,55.01
2017-07-05T12:00:42.767Z,55.07
2017-07-05T12:03:10.168Z,56.27
2017-07-05T12:05:37.566Z,55.98
2017-07-05T12:08:04.948Z,55.53
2017-07-05T12:10:32.354Z,55.30
2017-07-05T12:12:59.745Z,55.45
2017-07-05T12:15:27.180Z,54.19
2017-07-05T12:17:54.547Z,53.75
2017-07-05T12:20:21.951Z,53.83
2017-07-05T12:22:49.343Z,54.36
2017-07-05T12:25:16.768Z,54.14
2017-07-05T12:27:44.144Z,54.10
2017-07-05T12:30:11.544Z,54.39
2017-07-05T12:32:38.932Z,55.04
2017-07-05T12:35:06.331Z,54.36
2017-07-05T12:37:33.728Z,55.05
2017-07-05T12:40:01.134Z,53.31
2017-07-05T12:42:28.515Z,54.32
2017-07-05T12:44:55.941Z,53.29
2017-07-05T12:47:23.340Z,53.37
2017-07-05T12:49:50.755Z,52.77
2017-07-05T12:52:18.139Z,53.27
2017-07-05T12:54:45.557Z,53.27
2017-07-05T12:57:12.936Z,54.00
2017-07-05T12:59:40.337Z,53.79
2017-07-05T13:02:07.735Z,53.75
2017-07-05T13:04:35.143Z,53.23
2017-07-05T13:07:02.544Z,52.63
2017-07-05T13:09:29.948Z,52.10
2017-07-05T13:11:57.346Z,52.82
2017-07-05T13:14:24.740Z,52.93
2017-07-05T13:16:52.432Z,53.36
2017-07-05T13:19:19.843Z,52.80
2017-07-05T13:21:47.529Z,53.10
2017-07-05T13:24:15.269Z,52.52
2017-07-05T13:26:42.675Z,53.76
2017-07-05T13:29:10.067Z,52.96
2017-07-05T13:31:37.470Z,52.52
2017-07-05T13:34:04.861Z,53.16
2017-07-05T13:36:32.428Z,52.11
2017-07-05T13:38:59.816Z,51.75
2017-07-05T13:41:27.211Z,52.37
2017-07-05T13:43:54.604Z,52.70
2017-07-05T13:46:21.998Z,53.29
2017-07-05T13:48:49.408Z,53.42
2017-07-05T13:51:16.800Z,52.76
2017-07-05T13:53:44.192Z,52.41
2017-07-05T13:56:11.587Z,51.74
2017-07-05T13:58:38.975Z,52.66
2017-07-05T14:01:06.375Z,51.78
2017-07-05T14:03:33.763Z,52.49
2017-07-05T14:06:01.169Z,52.51
2017-07-05T14:08:28.558Z,52.24
2017-07-05T14:10:55.978Z,52.72
2017-07-05T14:13:23.359Z,52.55
2017-07-05T14:15:50.764Z,51.75
2017-07-05T14:18:18.146Z,52.81
2017-07-05T14:20:45.556Z,52.01
2017-07-05T14:23:12.935Z,51.85
2017-07-05T14:25:40.340Z,53.07
2017-07-05T14:28:07.729Z,53.19
2017-07-05T14:30:35.124Z,51.62
2017-07-05T14:33:02.523Z,51.84
2017-07-05T14:35:30.123Z,51.48
2017-07-05T14:37:57.523Z,51.28
2017-07-05T14:40:24.916Z,50.60
2017-07-05T14:42:52.310Z,50.64
2017-07-05T14:45:19.697Z,50.81
2017-07-05T14:47:47.087Z,50.17
2017-07-05T14:50:14.804Z,50.64
2017-07-05T14:52:42.199Z,50.32
2017-07-05T14:55:09.591Z,49.93
2017-07-05T14:57:36.990Z,50.41
2017-07-05T15:00:04.380Z,49.84
2017-07-05T15:02:31.778Z,48.98
2017-07-05T15:04:59.161Z,49.65
2017-07-05T15:07:26.556Z,49.54
2017-07-05T15:09:53.959Z,49.80
2017-07-05T15:12:21.365Z,50.17
2017-07-05T15:14:48.762Z,49.95
2017-07-05T15:17:16.152Z,49.79
2017-07-05T15:19:43.539Z,50.17
2017-07-05T15:22:10.938Z,49.11
2017-07-05T15:24:38.328Z,49.08
2017-07-05T15:27:05.934Z,49.79
2017-07-05T15:29:33.331Z,50.58
2017-07-05T15:32:00.730Z,51.76
2017-07-05T15:34:28.120Z,51.63
2017-07-05T15:36:55.516Z,50.44
2017-07-05T15:39:22.899Z,50.48
2017-07-05T15:41:50.312Z,50.53
2017-07-05T15:44:17.703Z,50.03
2017-07-05T15:46:45.091Z,50.12
2017-07-05T15:49:12.490Z,50.91
2017-07-05T15:51:39.887Z,50.15
2017-07-05T15:54:07.303Z,50.88
2017-07-05T15:56:34.691Z,50.52
2017-07-05T15:59:02.084Z,50.44
2017-07-05T16:01:29.483Z,50.71
2017-07-05T16:03:56.882Z,50.67
2017-07-05T16:06:24.275Z,50.46
2017-07-05T16:08:51.675Z,50.34
2017-07-05T16:11:19.063Z,50.08
2017-07-05T16:13:46.455Z,49.69
2017-07-05T16:16:13.852Z,49.62
2017-07-05T16:18:41.251Z,49.05
2017-07-05T16:21:08.644Z,49.70
2017-07-05T16:23:36.063Z,49.72
2017-07-05T16:26:03.430Z,50.39
2017-07-05T16:28:30.831Z,49.82
2017-07-05T16:30:58.224Z,49.41
2017-07-05T16:33:25.623Z,50.04
2017-07-05T16:35:53.018Z,49.98
2017-07-05T16:38:20.410Z,49.86
2017-07-05T16:40:47.808Z,49.48
2017-07-05T16:43:15.207Z,49.92
2017-07-05T16:45:42.597Z,51.42
2017-07-05T16:48:09.996Z,50.75
2017-07-05T16:50:37.379Z,50.90
2017-07-05T16:53:04.787Z,50.48
2017-07-05T16:55:32.175Z,51.90
2017-07-05T16:57:59.568Z,52.69
2017-07-05T17:00:26.970Z,51.92
2017-07-05T17:02:54.349Z,52.80
2017-07-05T17:05:21.743Z,52.61
2017-07-05T17:07:49.128Z,51.52
2017-07-05T17:10:16.523Z,52.01
2017-07-05T17:12:44.127Z,51.89
2017-07-05T17:15:11.736Z,51.68
2017-07-05T17:17:39.123Z,51.57
2017-07-05T17:20:06.521Z,51.25
2017-07-05T17:22:33.903Z,50.66
2017-07-05T17:25:01.306Z,50.95
2017-07-05T17:27:28.693Z,51.74
2017-07-05T17:29:56.097Z,50.66
2017-07-05T18:15:20.246Z,59.08
2017-07-05T18:17:47.634Z,58.79
2017-07-05T18:20:15.036Z,58.34
2017-07-05T18:22:42.427Z,57.73
2017-07-05T18:25:09.871Z,56.39
2017-07-05T18:27:37.265Z,56.34
2017-07-05T18:30:04.664Z,56.22
2017-07-05T18:32:32.059Z,56.05
2017-07-05T18:34:59.471Z,55.24
2017-07-05T18:37:26.858Z,54.71
2017-07-05T18:39:54.256Z,53.93
2017-07-05T18:42:21.681Z,53.29
2017-07-05T18:44:49.074Z,53.29
2017-07-05T18:47:16.463Z,53.59
2017-07-05T18:49:43.855Z,53.73
2017-07-05T18:52:11.273Z,53.94
2017-07-05T18:54:38.673Z,54.62
2017-07-05T18:57:06.287Z,55.06
2017-07-05T18:59:33.676Z,54.38
2017-07-05T19:02:01.510Z,54.31
2017-07-05T19:04:28.884Z,54.49
2017-07-05T19:06:56.287Z,54.04
2017-07-05T19:09:23.690Z,54.40
2017-07-05T19:11:51.094Z,54.92
2017-07-05T19:14:18.487Z,55.01
2017-07-05T19:16:45.916Z,54.88
2017-07-05T19:19:13.304Z,55.16
2017-07-05T19:21:40.695Z,55.10
2017-07-05T19:24:08.101Z,55.65
2017-07-05T19:26:35.491Z,55.67
2017-07-05T19:29:02.887Z,55.75
2017-07-05T19:31:30.268Z,55.73
2017-07-05T19:33:57.667Z,55.81
2017-07-05T19:36:25.055Z,56.39
2017-07-05T19:38:52.451Z,56.88
2017-07-05T19:41:19.844Z,56.73
2017-07-05T19:43:47.284Z,56.73
2017-07-05T19:46:14.701Z,56.68
2017-07-05T19:48:42.088Z,56.96
2017-07-05T19:51:09.487Z,56.93
2017-07-05T19:53:36.879Z,57.06
2017-07-05T19:56:04.346Z,57.36
2017-07-05T19:58:31.680Z,57.29
2017-07-05T20:00:59.095Z,57.01
2017-07-05T20:03:26.488Z,56.88
2017-07-05T20:05:53.891Z,56.43
2017-07-05T20:08:21.284Z,55.94
2017-07-05T20:10:48.694Z,55.99
2017-07-05T20:13:16.088Z,56.06
2017-07-05T20:15:43.504Z,56.99
2017-07-05T20:18:10.899Z,56.82
2017-07-05T20:20:38.290Z,57.19
2017-07-05T20:23:05.687Z,56.99
2017-07-05T20:25:33.087Z,57.30
2017-07-05T20:28:00.486Z,56.94
2017-07-05T20:30:27.879Z,56.88
2017-07-05T20:32:56.102Z,56.51
2017-07-05T20:35:23.493Z,56.85
2017-07-05T20:37:50.883Z,57.18
2017-07-05T20:40:18.275Z,56.94
2017-07-05T20:42:45.679Z,56.52
2017-07-05T20:45:13.071Z,56.76
2017-07-05T20:47:40.501Z,56.87
2017-07-05T20:50:07.907Z,57.41
2017-07-05T20:52:35.308Z,57.66
2017-07-05T20:55:02.712Z,58.03
2017-07-05T20:57:30.101Z,58.00
2017-07-05T20:59:57.516Z,58.37
2017-07-05T21:02:24.917Z,58.24
2017-07-05T21:04:52.317Z,58.72
2017-07-05T21:07:19.712Z,59.38
2017-07-05T21:09:47.123Z,59.39
2017-07-05T21:12:14.513Z,59.39
2017-07-05T21:14:41.906Z,60.09
2017-07-05T21:17:09.520Z,60.24
2017-07-05T21:19:36.923Z,60.34
2017-07-05T21:22:04.344Z,60.85
2017-07-05T21:24:31.736Z,60.98
2017-07-05T21:26:59.131Z,61.29
2017-07-05T21:29:26.530Z,61.19
2017-07-05T21:31:53.925Z,61.44
2017-07-05T21:34:21.319Z,60.93
2017-07-05T21:36:48.715Z,61.10
2017-07-05T21:39:16.114Z,61.40
2017-07-05T21:41:43.511Z,62.23
2017-07-05T21:44:11.119Z,61.89
2017-07-05T21:46:38.524Z,61.41
2017-07-05T21:49:05.916Z,60.94
2017-07-05T21:51:33.311Z,60.85
2017-07-05T21:54:00.712Z,60.52
2017-07-05T21:59:01.795Z,60.84
2017-07-05T22:01:29.179Z,61.67
2017-07-05T22:03:56.572Z,62.13
2017-07-05T22:06:23.965Z,63.24
2017-07-05T22:08:51.364Z,62.87
2017-07-05T22:11:18.747Z,62.58
2017-07-05T22:13:46.151Z,62.08
2017-07-05T22:16:13.541Z,61.91
2017-07-05T22:18:40.935Z,62.23
2017-07-05T22:21:08.332Z,62.04
2017-07-05T22:23:35.715Z,61.77
2017-07-05T22:28:36.748Z,61.46
2017-07-05T22:31:04.151Z,61.12
2017-07-05T22:33:31.539Z,60.97
2017-07-05T22:35:58.938Z,60.83
2017-07-05T22:38:26.343Z,60.79
2017-07-05T22:40:53.736Z,61.89
2017-07-05T22:43:21.127Z,61.62
2017-07-05T22:45:48.531Z,61.51
2017-07-05T22:48:15.919Z,61.25
2017-07-05T22:50:43.306Z,61.04
2017-07-05T22:53:10.923Z,62.01
2017-07-05T22:55:38.317Z,62.36
2017-07-05T22:58:05.708Z,61.86
2017-07-05T23:00:33.095Z,61.55
2017-07-05T23:03:00.498Z,61.38
2017-07-05T23:05:27.892Z,61.48
2017-07-05T23:07:55.286Z,61.61
2017-07-05T23:10:22.682Z,62.31
2017-07-05T23:12:50.080Z,62.03
2017-07-05T23:15:17.484Z,62.37
2017-07-05T23:17:44.880Z,62.16
2017-07-05T23:20:12.279Z,62.40
2017-07-05T23:22:39.682Z,62.14
2017-07-05T23:25:07.114Z,61.88
2017-07-05T23:27:34.508Z,61.92
2017-07-05T23:30:01.906Z,61.40
2017-07-05T23:32:29.349Z,61.45
2017-07-05T23:34:56.712Z,61.38
2017-07-05T23:37:24.102Z,61.55
2017-07-05T23:39:51.656Z,61.37
2017-07-05T23:42:19.067Z,61.71
2017-07-05T23:44:46.453Z,61.80
2017-07-05T23:47:13.847Z,61.77
2017-07-05T23:49:41.245Z,61.64
2017-07-05T23:52:08.637Z,62.54
2017-07-05T23:54:36.027Z,62.63
2017-07-05T23:57:03.423Z,62.68
2017-07-05T23:59:30.814Z,62.69
